Wheatley, Canada
Current Conditions -  °F | °C
As of 3:00 AM on Thursday 27 Nov 2014 (Local Time) from CYCK Reporting Station
Overcast Overcast  
Wind Chill: 25°   Ceiling: 6500
Heat Index: 30°   Visibility: 9mi
Dew Point: 28°   Wind: 5mph
Humidity: 93%   Direction: 350°N
Pressure: 30.05"   Gusts: NA
Location:  42.1°N, 82.45°W
Report Text: CYCK 270800Z AUTO 35004KT 9SM OVC065 M01/M02 A3005 RMK SLP183
Loading
Personal Weather Stations






























Interactive Weather Map New forecast layout! Learn more

10-Day Weather Forecast

Advertisements
Track Severe Weather on mobile